Time;durP1;ratioP1;P1;durP2;ratioP2;P2;SDS_P1;SDS_P2;PMS_P1;PMS_P2;Temp;Humidity;BMP_temperature;BMP_pressure;BME280_temperature;BME280_humidity;BME280_pressure;Samples;Min_cycle;Max_cycle;Signal;HPM_P1;HPM_P2
2023/12/14 00:01:15;;;;;;;13.85;6.90;;;1.40;99.90;;;;;;5071599;28;20498;-86
2023/12/14 00:03:41;;;;;;;12.32;6.88;;;1.40;99.90;;;;;;5071635;28;20032;-87
2023/12/14 00:06:11;;;;;;;15.18;7.18;;;1.40;99.90;;;;;;5071729;28;20111;-87
2023/12/14 00:08:36;;;;;;;13.43;7.07;;;1.40;99.90;;;;;;5055133;28;20115;-87
2023/12/14 00:11:06;;;;;;;14.48;7.38;;;1.40;99.90;;;;;;5053632;28;20461;-87
2023/12/14 00:13:32;;;;;;;15.43;7.90;;;1.40;99.90;;;;;;5068022;28;20037;-87
2023/12/14 00:15:58;;;;;;;13.82;7.22;;;1.30;99.90;;;;;;5051573;28;20036;-87
2023/12/14 00:18:24;;;;;;;12.77;7.03;;;1.40;99.90;;;;;;5070693;28;20119;-87
2023/12/14 00:20:56;;;;;;;15.18;7.05;;;1.40;99.90;;;;;;5038380;28;20028;-87
2023/12/14 00:23:23;;;;;;;11.85;6.35;;;1.40;99.90;;;;;;5040830;28;20041;-87
2023/12/14 00:25:49;;;;;;;11.90;5.82;;;1.40;99.90;;;;;;5076370;28;20552;-87
2023/12/14 00:28:14;;;;;;;10.60;5.40;;;1.40;99.90;;;;;;5058040;28;20119;-87
2023/12/14 00:30:40;;;;;;;12.82;6.22;;;1.40;99.90;;;;;;5076274;28;20036;-87
2023/12/14 00:33:06;;;;;;;9.98;5.47;;;1.40;99.90;;;;;;5058250;28;20119;-87
2023/12/14 00:35:31;;;;;;;10.57;5.80;;;1.40;99.90;;;;;;5058329;28;20033;-87
2023/12/14 00:37:57;;;;;;;10.45;5.55;;;1.40;99.90;;;;;;5074782;28;20564;-87
2023/12/14 00:40:23;;;;;;;9.48;5.05;;;1.50;99.90;;;;;;5062346;28;20021;-87
2023/12/14 00:42:49;;;;;;;9.70;4.53;;;1.40;99.90;;;;;;5037979;28;20393;-87
2023/12/14 00:45:14;;;;;;;9.00;5.25;;;1.40;99.90;;;;;;5054851;28;20036;-87
2023/12/14 00:47:40;;;;;;;10.88;5.93;;;1.40;99.90;;;;;;5067668;28;20029;-87
2023/12/14 00:50:06;;;;;;;10.60;5.72;;;1.40;99.90;;;;;;5058117;28;20414;-87
2023/12/14 00:52:32;;;;;;;18.92;8.13;;;1.40;99.90;;;;;;5041634;28;20028;-87
2023/12/14 00:54:58;;;;;;;16.27;7.35;;;1.50;99.90;;;;;;5041325;28;20116;-87
2023/12/14 00:57:23;;;;;;;15.07;7.05;;;1.40;99.90;;;;;;5075581;28;20021;-88
2023/12/14 00:59:49;;;;;;;11.27;6.47;;;1.40;99.90;;;;;;5057923;28;20024;-88
2023/12/14 01:02:15;;;;;;;13.70;7.03;;;1.50;99.90;;;;;;5057676;28;20392;-88
2023/12/14 01:04:41;;;;;;;14.00;6.88;;;1.40;99.90;;;;;;5041092;28;20509;-88
2023/12/14 01:07:07;;;;;;;13.80;7.15;;;1.40;99.90;;;;;;5041258;28;20025;-88
2023/12/14 01:09:33;;;;;;;15.15;8.02;;;1.40;99.90;;;;;;5068391;28;20044;-86
2023/12/14 01:11:59;;;;;;;15.00;7.60;;;1.40;99.90;;;;;;5054257;28;20120;-87
2023/12/14 01:14:25;;;;;;;12.75;7.30;;;1.40;99.90;;;;;;5054271;28;20506;-86
2023/12/14 01:16:50;;;;;;;11.23;6.68;;;1.40;99.90;;;;;;5060290;28;20029;-87
2023/12/14 01:19:16;;;;;;;10.88;6.15;;;1.40;99.90;;;;;;5057390;28;20117;-87
2023/12/14 01:21:42;;;;;;;12.63;6.78;;;1.40;99.90;;;;;;5040791;28;20033;-87
2023/12/14 01:24:08;;;;;;;14.60;7.63;;;1.40;99.90;;;;;;5057412;28;20028;-87
2023/12/14 01:26:33;;;;;;;12.48;6.65;;;1.40;99.90;;;;;;5040761;28;20439;-87
2023/12/14 01:28:59;;;;;;;16.45;8.35;;;1.40;99.90;;;;;;5057063;28;20032;-86
2023/12/14 01:31:26;;;;;;;17.25;8.15;;;1.30;99.90;;;;;;5057308;28;20074;-86
2023/12/14 01:33:52;;;;;;;16.17;7.88;;;1.30;99.90;;;;;;5073517;28;20031;-87
2023/12/14 01:36:25;;;;;;;14.05;7.10;;;1.40;99.90;;;;;;5057059;28;20024;-87
2023/12/14 01:38:51;;;;;;;12.55;6.38;;;1.30;99.90;;;;;;5073738;28;20055;-86
2023/12/14 01:41:17;;;;;;;13.43;6.68;;;1.40;99.90;;;;;;5053934;28;20029;-87
2023/12/14 01:43:43;;;;;;;15.98;7.25;;;1.40;99.90;;;;;;5053248;28;20481;-87
2023/12/14 01:46:08;;;;;;;16.70;7.90;;;1.40;99.90;;;;;;5037509;28;20051;-87
2023/12/14 01:48:34;;;;;;;15.27;7.82;;;1.40;99.90;;;;;;5040086;28;20506;-86
2023/12/14 01:51:00;;;;;;;17.77;7.53;;;1.40;99.90;;;;;;5056804;28;20033;-87
2023/12/14 01:53:26;;;;;;;17.20;7.38;;;1.40;99.90;;;;;;5056783;28;20060;-87
2023/12/14 01:55:52;;;;;;;11.20;5.47;;;1.40;99.90;;;;;;5073356;28;20036;-87
2023/12/14 01:58:18;;;;;;;10.98;5.78;;;1.40;99.90;;;;;;5073004;28;20036;-86
2023/12/14 02:00:59;;;;;;;13.98;6.55;;;1.50;99.90;;;;;;5056791;28;20028;-86
2023/12/14 02:03:28;;;;;;;16.40;7.82;;;1.40;99.90;;;;;;5074454;28;20031;-86
2023/12/14 02:06:04;;;;;;;;;;;;;;;;;;;;;
2023/12/14 02:08:30;;;;;;;16.92;7.97;;;1.40;99.90;;;;;;5074803;28;20472;-86
2023/12/14 02:10:55;;;;;;;18.15;8.10;;;1.40;99.90;;;;;;5056172;28;20121;-86
2023/12/14 02:13:21;;;;;;;15.27;7.93;;;1.40;99.90;;;;;;5036183;28;20526;-86
2023/12/14 02:15:47;;;;;;;15.77;8.82;;;1.40;99.90;;;;;;5054384;28;20017;-86
2023/12/14 02:18:13;;;;;;;14.75;7.88;;;1.40;99.90;;;;;;5071950;28;20024;-86
2023/12/14 02:20:39;;;;;;;16.63;8.55;;;1.40;99.90;;;;;;5056749;28;20488;-86
2023/12/14 02:23:04;;;;;;;16.63;8.15;;;1.40;99.90;;;;;;5073069;28;20395;-86
2023/12/14 02:25:30;;;;;;;17.10;7.88;;;1.40;99.90;;;;;;5073300;28;20025;-86
2023/12/14 02:27:56;;;;;;;16.77;8.00;;;1.40;99.90;;;;;;5055922;28;20048;-86
2023/12/14 02:30:21;;;;;;;17.13;7.93;;;1.40;99.90;;;;;;5072767;28;20075;-86
2023/12/14 02:32:47;;;;;;;14.48;7.25;;;1.40;99.90;;;;;;5072979;28;20024;-86
2023/12/14 02:35:13;;;;;;;16.02;7.30;;;1.40;99.90;;;;;;5072841;28;20388;-86
2023/12/14 02:37:41;;;;;;;14.10;7.45;;;1.40;99.90;;;;;;5073128;28;20515;-86
2023/12/14 02:40:08;;;;;;;15.38;7.35;;;1.40;99.90;;;;;;5046090;28;20117;-86
2023/12/14 02:42:34;;;;;;;13.93;7.03;;;1.40;99.90;;;;;;5068942;28;20104;-86
2023/12/14 02:45:01;;;;;;;13.98;6.82;;;1.40;99.90;;;;;;5035514;28;20503;-87
2023/12/14 02:47:27;;;;;;;14.90;7.05;;;1.40;99.90;;;;;;5080265;28;20021;-86
2023/12/14 02:49:53;;;;;;;13.88;6.53;;;1.40;99.90;;;;;;5039276;28;20501;-86
2023/12/14 02:52:18;;;;;;;19.00;7.40;;;1.40;99.90;;;;;;5039319;28;20028;-87
2023/12/14 02:54:44;;;;;;;17.67;8.25;;;1.40;99.90;;;;;;5055713;28;20029;-87
2023/12/14 02:57:09;;;;;;;19.65;8.13;;;1.50;99.90;;;;;;5039142;28;20024;-86
2023/12/14 02:59:35;;;;;;;27.92;12.30;;;1.40;99.90;;;;;;5072322;28;20035;-86
2023/12/14 03:02:01;;;;;;;31.50;13.18;;;1.50;99.90;;;;;;5072309;28;20028;-87
2023/12/14 03:04:27;;;;;;;29.23;12.82;;;1.40;99.90;;;;;;5055809;28;20078;-87
2023/12/14 03:06:53;;;;;;;37.10;15.82;;;1.40;99.90;;;;;;5072629;28;20045;-87
2023/12/14 03:09:19;;;;;;;27.48;11.18;;;1.40;99.90;;;;;;5051980;28;20033;-87
2023/12/14 03:11:45;;;;;;;19.40;8.65;;;1.40;99.90;;;;;;5052463;28;20125;-87
2023/12/14 03:14:11;;;;;;;18.25;8.23;;;1.40;99.90;;;;;;5053291;28;20028;-87
2023/12/14 03:16:37;;;;;;;15.88;7.95;;;1.40;99.90;;;;;;5056435;28;20029;-87
2023/12/14 03:19:03;;;;;;;12.93;7.40;;;1.40;99.90;;;;;;5055555;28;20123;-87
2023/12/14 03:21:29;;;;;;;15.38;7.35;;;1.40;99.90;;;;;;5055563;28;20032;-87
2023/12/14 03:23:55;;;;;;;13.57;6.78;;;1.40;99.90;;;;;;5072112;28;20510;-87
2023/12/14 03:26:21;;;;;;;14.57;6.90;;;1.30;99.90;;;;;;5072131;28;20056;-87
2023/12/14 03:28:46;;;;;;;16.48;6.63;;;1.40;99.90;;;;;;5055329;28;20439;-87
2023/12/14 03:31:15;;;;;;;12.07;6.72;;;1.30;99.90;;;;;;5038992;28;20028;-87
2023/12/14 03:33:42;;;;;;;15.65;7.07;;;1.30;99.90;;;;;;5072021;28;20090;-87
2023/12/14 03:36:08;;;;;;;15.63;6.97;;;1.30;99.90;;;;;;5055517;28;20024;-87
2023/12/14 03:38:34;;;;;;;12.85;7.03;;;1.30;99.90;;;;;;5055277;28;20033;-87
2023/12/14 03:41:00;;;;;;;17.10;7.68;;;1.30;99.90;;;;;;5054531;28;20025;-87
2023/12/14 03:43:26;;;;;;;18.90;8.25;;;1.40;99.90;;;;;;5051574;28;20171;-87
2023/12/14 03:45:52;;;;;;;17.80;7.57;;;1.40;99.90;;;;;;5052157;28;20047;-87
2023/12/14 03:48:18;;;;;;;16.88;7.63;;;1.40;99.90;;;;;;5053260;28;20473;-87
2023/12/14 03:50:44;;;;;;;19.58;8.05;;;1.40;99.90;;;;;;5038619;28;20017;-87
2023/12/14 03:53:09;;;;;;;15.80;7.80;;;1.40;99.90;;;;;;5071747;28;20369;-87
2023/12/14 03:55:35;;;;;;;19.92;7.47;;;1.40;99.90;;;;;;5038599;28;20067;-87
2023/12/14 03:58:01;;;;;;;20.35;9.88;;;1.40;99.90;;;;;;5058685;28;20553;-87
2023/12/14 04:00:26;;;;;;;20.77;9.57;;;1.40;99.90;;;;;;5075711;28;20031;-87
2023/12/14 04:02:52;;;;;;;22.25;9.55;;;1.40;99.90;;;;;;5075540;28;20036;-88
2023/12/14 04:05:18;;;;;;;20.60;9.00;;;1.40;99.90;;;;;;5059092;28;20392;-88
2023/12/14 04:07:43;;;;;;;17.63;7.60;;;1.30;99.90;;;;;;5042086;28;20020;-87
2023/12/14 04:10:10;;;;;;;20.40;8.38;;;1.30;99.90;;;;;;5064787;28;20374;-87
2023/12/14 04:12:36;;;;;;;21.70;9.95;;;1.40;99.90;;;;;;5056692;28;20044;-87
2023/12/14 04:15:03;;;;;;;21.48;9.50;;;1.40;99.90;;;;;;5056308;28;20085;-87
2023/12/14 04:17:30;;;;;;;19.83;8.57;;;1.40;99.90;;;;;;5066629;28;20025;-87
2023/12/14 04:19:56;;;;;;;19.02;8.82;;;1.30;99.90;;;;;;5075222;28;20077;-87
2023/12/14 04:22:22;;;;;;;22.50;9.57;;;1.30;99.90;;;;;;5058708;28;20113;-87
2023/12/14 04:24:48;;;;;;;21.33;8.63;;;1.40;99.90;;;;;;5075090;28;20028;-87
2023/12/14 04:27:15;;;;;;;19.48;8.65;;;1.30;99.90;;;;;;5041973;28;20388;-87
2023/12/14 04:29:40;;;;;;;26.88;10.93;;;1.40;99.90;;;;;;5058104;28;20024;-87
2023/12/14 04:32:06;;;;;;;27.25;13.10;;;1.40;99.90;;;;;;5058314;28;20029;-86
2023/12/14 04:34:32;;;;;;;25.20;11.57;;;1.40;99.90;;;;;;5075046;28;20028;-87
2023/12/14 04:36:58;;;;;;;20.15;10.20;;;1.40;99.90;;;;;;5058187;28;20032;-87
2023/12/14 04:39:27;;;;;;;21.75;9.90;;;1.40;99.90;;;;;;5070611;28;20041;-87
2023/12/14 04:41:53;;;;;;;19.83;9.20;;;1.40;99.90;;;;;;5038765;28;20033;-88
2023/12/14 04:44:21;;;;;;;18.63;9.05;;;1.30;99.90;;;;;;5054972;28;20035;-87
2023/12/14 04:46:50;;;;;;;17.42;8.38;;;1.40;99.90;;;;;;5061033;28;20107;-88
2023/12/14 04:49:16;;;;;;;19.08;8.45;;;1.40;99.90;;;;;;5076377;28;20016;-87
2023/12/14 04:51:42;;;;;;;19.05;9.50;;;1.40;99.90;;;;;;5074977;28;20040;-88
2023/12/14 04:54:08;;;;;;;19.70;9.73;;;1.40;99.90;;;;;;5075585;28;20032;-87
2023/12/14 04:56:34;;;;;;;26.25;11.27;;;1.40;99.90;;;;;;5074645;28;20071;-87
2023/12/14 04:59:00;;;;;;;24.23;10.77;;;1.40;99.90;;;;;;5074960;28;20067;-88
2023/12/14 05:01:28;;;;;;;21.65;9.40;;;1.40;99.90;;;;;;5058740;28;20037;-88
2023/12/14 05:03:54;;;;;;;22.02;9.45;;;1.40;99.90;;;;;;5074473;28;20020;-87
2023/12/14 05:06:21;;;;;;;18.27;8.80;;;1.30;99.90;;;;;;5041126;28;20028;-87
2023/12/14 05:08:46;;;;;;;18.90;9.05;;;1.40;99.90;;;;;;5073402;28;20021;-86
2023/12/14 05:11:13;;;;;;;19.05;8.57;;;1.30;99.90;;;;;;5038313;28;20473;-86
2023/12/14 05:13:39;;;;;;;16.23;8.90;;;1.30;99.90;;;;;;5053931;28;20381;-86
2023/12/14 05:16:05;;;;;;;19.95;9.20;;;1.30;99.90;;;;;;5054079;28;20075;-86
2023/12/14 05:18:31;;;;;;;21.23;10.60;;;1.30;99.90;;;;;;5073928;28;20029;-86
2023/12/14 05:20:56;;;;;;;21.83;9.90;;;1.30;99.90;;;;;;5057417;28;20498;-86
2023/12/14 05:23:23;;;;;;;22.13;10.50;;;1.30;99.90;;;;;;5057440;28;20040;-86
2023/12/14 05:25:49;;;;;;;23.30;10.68;;;1.30;99.90;;;;;;5057679;28;20024;-85
2023/12/14 05:28:15;;;;;;;26.30;10.30;;;1.30;99.90;;;;;;5073958;28;20029;-86
2023/12/14 05:30:41;;;;;;;17.20;7.78;;;1.30;99.90;;;;;;5074381;28;20025;-84
2023/12/14 05:33:07;;;;;;;17.85;7.15;;;1.30;99.90;;;;;;5058364;28;20025;-83
2023/12/14 05:35:32;;;;;;;16.52;7.32;;;1.30;99.90;;;;;;5075728;28;20143;-83
2023/12/14 05:37:58;;;;;;;14.10;6.72;;;1.30;99.90;;;;;;5060351;28;20033;-84
2023/12/14 05:40:24;;;;;;;13.85;6.57;;;1.30;99.90;;;;;;5021122;28;20041;-84
2023/12/14 05:42:50;;;;;;;14.95;6.78;;;1.30;99.90;;;;;;5037430;28;20425;-84
2023/12/14 05:45:16;;;;;;;15.65;7.03;;;1.30;99.90;;;;;;5037404;28;20576;-84
2023/12/14 05:47:41;;;;;;;16.35;7.30;;;1.40;99.90;;;;;;5039083;28;20100;-84
2023/12/14 05:50:09;;;;;;;16.48;6.95;;;1.40;99.90;;;;;;5021150;28;20107;-84
2023/12/14 05:52:36;;;;;;;13.57;6.47;;;1.50;99.90;;;;;;5033748;28;20102;-84
2023/12/14 05:55:01;;;;;;;15.15;7.20;;;1.50;99.90;;;;;;5053920;28;20032;-84
2023/12/14 05:57:27;;;;;;;16.05;7.40;;;1.50;99.90;;;;;;5053672;28;20140;-84
2023/12/14 05:59:53;;;;;;;17.73;7.03;;;1.50;99.90;;;;;;5036876;28;20036;-84
2023/12/14 06:02:19;;;;;;;14.63;7.00;;;1.60;99.90;;;;;;5053740;28;20120;-84
2023/12/14 06:04:45;;;;;;;17.02;8.63;;;1.60;99.90;;;;;;5053925;28;20481;-84
2023/12/14 06:07:13;;;;;;;21.48;9.88;;;1.60;99.90;;;;;;5053566;28;20036;-84
2023/12/14 06:09:39;;;;;;;29.65;13.30;;;1.60;99.90;;;;;;5053452;28;20097;-84
2023/12/14 06:12:05;;;;;;;23.70;12.52;;;1.70;99.90;;;;;;5055147;28;20469;-84
2023/12/14 06:14:31;;;;;;;24.45;11.27;;;1.70;99.90;;;;;;5053416;28;20508;-84
2023/12/14 06:16:58;;;;;;;31.13;13.23;;;1.70;99.90;;;;;;5043819;28;20028;-84
2023/12/14 06:19:24;;;;;;;33.17;14.77;;;1.70;99.90;;;;;;5056032;28;20039;-84
2023/12/14 06:21:50;;;;;;;41.30;17.58;;;1.70;99.90;;;;;;5056698;28;20028;-84
2023/12/14 06:24:15;;;;;;;31.88;14.00;;;1.70;99.90;;;;;;5056525;28;20040;-84
2023/12/14 06:26:45;;;;;;;21.30;11.23;;;1.70;99.90;;;;;;5073087;28;20025;-84
2023/12/14 06:29:11;;;;;;;25.10;10.50;;;1.70;99.90;;;;;;5074320;28;20099;-87
2023/12/14 06:31:38;;;;;;;23.13;10.05;;;1.70;99.90;;;;;;5073028;28;20477;-84
2023/12/14 06:34:04;;;;;;;18.52;9.27;;;1.60;99.90;;;;;;5073226;28;20032;-85
2023/12/14 06:36:34;;;;;;;18.10;9.25;;;1.60;99.90;;;;;;5056475;28;20033;-85
2023/12/14 06:39:01;;;;;;;14.90;8.30;;;1.60;99.90;;;;;;5055443;28;20040;-84
2023/12/14 06:41:28;;;;;;;13.55;7.47;;;1.60;99.90;;;;;;5052996;28;20489;-84
2023/12/14 06:43:54;;;;;;;13.48;6.93;;;1.50;99.90;;;;;;5053009;28;20087;-84
2023/12/14 06:46:21;;;;;;;15.55;8.60;;;1.50;99.90;;;;;;5055209;28;20049;-85
2023/12/14 06:48:47;;;;;;;15.52;9.10;;;1.50;99.90;;;;;;5073360;28;20024;-85
2023/12/14 06:51:13;;;;;;;17.92;10.77;;;1.50;99.90;;;;;;5074488;28;20100;-85
2023/12/14 06:53:43;;;;;;;13.50;7.30;;;1.50;99.90;;;;;;5073080;28;20078;-85
2023/12/14 06:56:10;;;;;;;11.67;6.37;;;1.50;99.90;;;;;;5072962;28;20035;-84
2023/12/14 06:58:44;;;;;;;9.70;5.20;;;1.50;99.90;;;;;;5073116;28;20527;-84
2023/12/14 07:01:23;;;;;;;8.10;4.30;;;1.50;99.90;;;;;;5074258;28;20032;-84
2023/12/14 07:03:48;;;;;;;8.63;4.75;;;1.40;99.90;;;;;;5073156;28;20502;-84
2023/12/14 07:06:15;;;;;;;8.73;4.78;;;1.40;99.90;;;;;;5056255;28;20028;-84
2023/12/14 07:08:41;;;;;;;12.15;7.13;;;1.40;99.90;;;;;;5056187;28;20116;-84
2023/12/14 07:11:08;;;;;;;10.70;6.05;;;1.40;99.90;;;;;;5054237;28;20409;-83
2023/12/14 07:13:36;;;;;;;11.68;6.53;;;1.40;99.90;;;;;;5069344;28;20029;-83
2023/12/14 07:16:07;;;;;;;9.70;5.68;;;1.40;99.90;;;;;;5052719;28;20074;-83
2023/12/14 07:18:36;;;;;;;9.93;5.90;;;1.40;99.90;;;;;;5033786;28;20461;-83
2023/12/14 07:21:03;;;;;;;8.55;5.63;;;1.50;99.90;;;;;;5032619;28;20140;-83
2023/12/14 07:23:29;;;;;;;10.50;5.90;;;1.50;99.90;;;;;;5032571;28;20112;-83
2023/12/14 07:25:55;;;;;;;11.50;6.55;;;1.50;99.90;;;;;;5034092;28;20485;-85
2023/12/14 07:28:21;;;;;;;15.85;8.57;;;1.50;99.90;;;;;;5036324;28;20032;-84
2023/12/14 07:30:46;;;;;;;16.95;9.73;;;1.50;99.90;;;;;;5020967;28;20477;-84
2023/12/14 07:33:13;;;;;;;17.50;9.15;;;1.40;99.90;;;;;;5038949;28;20098;-84
2023/12/14 07:35:38;;;;;;;11.55;6.03;;;1.50;99.90;;;;;;5021185;28;20074;-84
2023/12/14 07:38:04;;;;;;;10.45;5.68;;;1.50;99.90;;;;;;5038331;28;20128;-84
2023/12/14 07:40:30;;;;;;;11.55;5.95;;;1.50;99.90;;;;;;5051416;28;20036;-84
2023/12/14 07:42:55;;;;;;;11.43;6.00;;;1.50;99.90;;;;;;5040706;28;20040;-84
2023/12/14 07:45:21;;;;;;;9.68;5.50;;;1.60;99.90;;;;;;5076139;28;20021;-84
2023/12/14 07:47:47;;;;;;;11.43;5.93;;;1.60;99.90;;;;;;5071432;28;20029;-84
2023/12/14 07:50:12;;;;;;;10.45;6.70;;;1.60;99.90;;;;;;5060161;28;20400;-84
2023/12/14 07:52:39;;;;;;;11.13;7.13;;;1.60;99.90;;;;;;5077854;28;20107;-84
2023/12/14 07:55:05;;;;;;;15.27;8.55;;;1.60;99.90;;;;;;5076231;28;20028;-84
2023/12/14 07:57:31;;;;;;;14.18;8.18;;;1.70;99.90;;;;;;5042789;28;20028;-84
2023/12/14 07:59:57;;;;;;;11.43;5.65;;;1.60;99.90;;;;;;5042652;28;20043;-84
2023/12/14 08:02:23;;;;;;;7.57;4.28;;;1.70;99.90;;;;;;5075885;28;20082;-84
2023/12/14 08:04:49;;;;;;;7.57;3.83;;;1.60;99.90;;;;;;5059177;28;20025;-84
2023/12/14 08:07:15;;;;;;;11.00;5.60;;;1.60;99.90;;;;;;5059081;28;20028;-84
2023/12/14 08:09:41;;;;;;;11.40;6.45;;;1.60;99.90;;;;;;5052967;28;20485;-84
2023/12/14 08:12:07;;;;;;;9.27;5.95;;;1.60;99.90;;;;;;5055677;28;20032;-84
2023/12/14 08:14:34;;;;;;;12.70;7.10;;;1.60;99.90;;;;;;5055508;28;20481;-84
2023/12/14 08:17:01;;;;;;;14.00;7.40;;;1.60;99.90;;;;;;5064290;28;20024;-84
2023/12/14 08:19:27;;;;;;;13.30;7.05;;;1.70;99.90;;;;;;5059291;28;20122;-84
2023/12/14 08:21:53;;;;;;;14.77;7.75;;;1.70;99.90;;;;;;5058868;28;20028;-84
2023/12/14 08:24:18;;;;;;;14.50;6.72;;;1.70;99.90;;;;;;5076768;28;20043;-84
2023/12/14 08:26:44;;;;;;;10.73;6.55;;;1.70;99.90;;;;;;5075234;28;20020;-84
2023/12/14 08:29:10;;;;;;;11.65;6.72;;;1.70;99.90;;;;;;5058636;28;20035;-84
2023/12/14 08:31:35;;;;;;;11.15;6.40;;;1.70;99.90;;;;;;5058856;28;20082;-84
2023/12/14 08:34:03;;;;;;;12.55;7.03;;;1.70;99.90;;;;;;5058651;28;20033;-84
2023/12/14 08:36:29;;;;;;;16.52;7.72;;;1.80;99.90;;;;;;5075463;28;20029;-84
2023/12/14 08:38:54;;;;;;;12.13;6.90;;;1.80;99.90;;;;;;5076378;28;20025;-84
2023/12/14 08:41:20;;;;;;;13.30;7.55;;;1.80;99.90;;;;;;5038769;28;20078;-84
2023/12/14 08:43:46;;;;;;;10.70;6.30;;;1.90;99.90;;;;;;5057831;28;20120;-84
2023/12/14 08:46:12;;;;;;;10.48;6.47;;;1.90;99.90;;;;;;5056426;28;20021;-83
2023/12/14 08:48:37;;;;;;;10.38;6.32;;;1.90;99.90;;;;;;5058417;28;20096;-84
2023/12/14 08:51:04;;;;;;;10.38;6.15;;;1.90;99.90;;;;;;5041966;28;20020;-84
2023/12/14 08:53:30;;;;;;;15.55;7.60;;;1.90;99.90;;;;;;5075485;28;20028;-84
2023/12/14 08:55:55;;;;;;;12.75;8.50;;;1.90;99.90;;;;;;5042517;28;20031;-84
2023/12/14 08:58:21;;;;;;;12.55;8.05;;;1.90;99.90;;;;;;5075101;28;20480;-84
2023/12/14 09:00:52;;;;;;;12.52;7.28;;;1.90;99.90;;;;;;5059571;28;20036;-85
2023/12/14 09:03:18;;;;;;;;;;;1.90;99.90;;;;;;5045348;28;20513;-85
2023/12/14 09:05:45;;;;;;;10.68;6.18;;;1.90;99.90;;;;;;5079256;28;19905;-84
2023/12/14 09:08:11;;;;;;;10.68;6.70;;;1.90;99.90;;;;;;5075750;28;20115;-83
2023/12/14 09:10:38;;;;;;;12.38;7.30;;;1.90;99.90;;;;;;5060420;28;20033;-83
2023/12/14 09:13:04;;;;;;;16.67;9.15;;;1.90;99.90;;;;;;5054715;28;20033;-84
2023/12/14 09:15:33;;;;;;;19.20;9.75;;;1.90;99.90;;;;;;5056043;28;20017;-84
2023/12/14 09:17:59;;;;;;;17.55;9.40;;;1.90;99.90;;;;;;5071621;28;20499;-83
2023/12/14 09:20:25;;;;;;;27.40;14.82;;;1.90;99.90;;;;;;5058164;28;20028;-83
2023/12/14 09:22:51;;;;;;;25.50;12.40;;;1.90;99.90;;;;;;5074379;28;20369;-84
2023/12/14 09:25:18;;;;;;;26.20;13.18;;;2.00;99.90;;;;;;5074740;28;20029;-84
2023/12/14 09:27:43;;;;;;;25.15;12.95;;;2.00;99.90;;;;;;5058090;28;20024;-84
2023/12/14 09:30:10;;;;;;;21.67;11.25;;;2.00;99.90;;;;;;5057998;28;20120;-84
2023/12/14 09:32:36;;;;;;;18.15;9.90;;;2.00;99.90;;;;;;5058522;28;20496;-83
2023/12/14 09:35:02;;;;;;;11.85;6.10;;;2.00;99.90;;;;;;5074288;28;20039;-84
2023/12/14 09:37:28;;;;;;;9.43;5.88;;;2.00;99.90;;;;;;5057751;28;20028;-84
2023/12/14 09:39:53;;;;;;;9.57;5.28;;;2.00;99.90;;;;;;5066077;28;20025;-84
2023/12/14 09:42:21;;;;;;;10.07;5.50;;;2.00;99.90;;;;;;5071063;28;20021;-84
2023/12/14 09:44:52;;;;;;;11.27;5.82;;;2.00;99.90;;;;;;5053711;28;20032;-84
2023/12/14 09:47:18;;;;;;;;;;;2.00;99.90;;;;;;5064277;28;20036;-83
2023/12/14 09:49:45;;;;;;;7.85;4.82;;;2.00;99.90;;;;;;5074132;28;19959;-84
2023/12/14 09:52:11;;;;;;;7.57;4.65;;;2.00;99.90;;;;;;5074319;28;20021;-83
2023/12/14 09:54:37;;;;;;;8.40;5.25;;;2.00;99.90;;;;;;5073739;28;20040;-83
2023/12/14 09:57:03;;;;;;;7.70;4.53;;;2.10;99.90;;;;;;5073826;28;20051;-84
2023/12/14 09:59:29;;;;;;;9.30;4.57;;;2.10;99.90;;;;;;5057233;28;20489;-84
2023/12/14 10:02:10;;;;;;;10.65;5.35;;;2.10;99.90;;;;;;5074949;28;20426;-84
2023/12/14 10:04:36;;;;;;;10.80;4.88;;;2.20;99.90;;;;;;5073828;28;20031;-84
2023/12/14 10:07:06;;;;;;;9.73;4.90;;;2.20;99.90;;;;;;5040554;28;20029;-84
2023/12/14 10:09:33;;;;;;;8.35;5.00;;;2.20;99.90;;;;;;5037157;28;20025;-84
2023/12/14 10:12:07;;;;;;;9.80;5.80;;;2.30;99.90;;;;;;5056535;28;20047;-85
2023/12/14 10:14:34;;;;;;;11.57;6.90;;;2.40;99.90;;;;;;5054846;28;20025;-85
2023/12/14 10:17:15;;;;;;;10.05;6.00;;;2.40;99.90;;;;;;5062235;28;20024;-85
2023/12/14 10:19:44;;;;;;;10.30;6.50;;;2.50;99.90;;;;;;5076209;28;20017;-85
2023/12/14 10:22:11;;;;;;;7.50;4.75;;;2.70;99.90;;;;;;5074805;28;20031;-84
2023/12/14 10:24:37;;;;;;;7.40;4.38;;;2.80;99.90;;;;;;5074912;28;20070;-84
2023/12/14 10:27:09;;;;;;;7.90;5.15;;;2.80;99.90;;;;;;5057855;28;20033;-85
2023/12/14 10:29:39;;;;;;;8.80;5.35;;;2.80;99.90;;;;;;5074350;28;20021;-85
2023/12/14 10:32:06;;;;;;;8.88;4.70;;;2.80;99.90;;;;;;5073136;28;20048;-85
2023/12/14 10:34:35;;;;;;;6.85;4.50;;;2.80;99.90;;;;;;5040141;28;20043;-85
2023/12/14 10:37:04;;;;;;;7.63;3.75;;;2.80;99.90;;;;;;5073050;28;20099;-85
2023/12/14 10:39:31;;;;;;;4.82;3.47;;;2.80;99.90;;;;;;5051338;28;20029;-85
2023/12/14 10:41:58;;;;;;;6.78;3.67;;;2.80;99.90;;;;;;5052917;28;20631;-85
2023/12/14 10:44:26;;;;;;;20.88;12.63;;;2.80;99.90;;;;;;5052629;28;20071;-85
2023/12/14 10:46:57;;;;;;;25.27;16.05;;;2.80;99.90;;;;;;5059386;28;20482;-85
2023/12/14 10:49:25;;;;;;;13.40;9.43;;;2.70;99.90;;;;;;5074078;28;20021;-85
2023/12/14 10:51:55;;;;;;;8.50;5.93;;;2.70;99.90;;;;;;5072812;28;20024;-85
2023/12/14 10:54:21;;;;;;;8.25;5.20;;;2.60;99.90;;;;;;5072820;28;20075;-85
2023/12/14 10:56:47;;;;;;;9.15;4.72;;;2.70;99.90;;;;;;5077038;28;20024;-85
2023/12/14 10:59:16;;;;;;;8.65;4.90;;;2.70;99.90;;;;;;5039454;28;20115;-85
2023/12/14 11:01:42;;;;;;;8.15;5.30;;;2.70;99.90;;;;;;5073067;28;20031;-85
2023/12/14 11:04:13;;;;;;;8.55;5.00;;;2.60;99.90;;;;;;5072584;28;20392;-85
2023/12/14 11:06:40;;;;;;;5.93;3.78;;;2.60;99.90;;;;;;5056071;28;20024;-85
2023/12/14 11:09:08;;;;;;;9.00;4.35;;;2.70;99.90;;;;;;5070855;28;20036;-85
2023/12/14 11:12:04;;;;;;;7.43;4.45;;;2.70;99.90;;;;;;5052453;28;20025;-85
2023/12/14 11:14:29;;;;;;;5.78;4.18;;;2.70;99.90;;;;;;5035932;28;20036;-85
2023/12/14 11:17:06;;;;;;;6.97;4.30;;;2.70;99.90;;;;;;5059309;28;20029;-85
2023/12/14 11:19:32;;;;;;;5.93;3.65;;;2.80;99.90;;;;;;5055821;28;20028;-85
2023/12/14 11:22:15;;;;;;;7.28;4.22;;;2.80;99.90;;;;;;5072584;28;20064;-85
2023/12/14 11:24:51;;;;;;;6.03;4.00;;;2.90;99.90;;;;;;5072235;28;20025;-85
2023/12/14 11:27:27;;;;;;;7.68;4.40;;;3.00;99.90;;;;;;5055619;28;20031;-85
2023/12/14 11:29:53;;;;;;;6.93;4.25;;;3.10;99.90;;;;;;5073381;28;20512;-85
2023/12/14 11:32:19;;;;;;;8.40;4.50;;;3.10;99.90;;;;;;5055783;28;20384;-85
2023/12/14 11:34:48;;;;;;;7.10;4.10;;;3.20;99.90;;;;;;5038920;28;20036;-85
2023/12/14 11:37:14;;;;;;;7.25;4.82;;;3.20;99.90;;;;;;5055552;28;20400;-85
2023/12/14 11:39:40;;;;;;;8.13;4.80;;;3.30;99.90;;;;;;5049302;28;20060;-85
2023/12/14 11:42:10;;;;;;;7.57;5.00;;;3.30;99.90;;;;;;5038030;28;20025;-85
2023/12/14 11:44:37;;;;;;;8.00;4.72;;;3.30;99.90;;;;;;5053956;28;20021;-85
2023/12/14 11:47:03;;;;;;;8.95;5.53;;;3.30;99.90;;;;;;5059995;28;20090;-85
2023/12/14 11:49:32;;;;;;;6.95;4.70;;;3.40;99.90;;;;;;5039418;28;20028;-85
2023/12/14 11:52:04;;;;;;;10.38;6.07;;;3.40;99.90;;;;;;5073925;28;20095;-85
2023/12/14 11:54:30;;;;;;;8.45;5.13;;;3.40;99.90;;;;;;5072314;28;20484;-86
2023/12/14 11:56:56;;;;;;;9.32;6.10;;;3.40;99.90;;;;;;5072010;28;20067;-85
2023/12/14 11:59:21;;;;;;;9.65;6.15;;;3.40;99.90;;;;;;5038665;28;20035;-85
2023/12/14 12:01:58;;;;;;;10.10;6.03;;;3.40;99.90;;;;;;5055855;28;20108;-85
2023/12/14 12:04:25;;;;;;;12.13;7.00;;;3.40;99.90;;;;;;5056003;28;20029;-85
2023/12/14 12:07:02;;;;;;;12.48;7.43;;;3.30;99.90;;;;;;5038878;28;20029;-85
2023/12/14 12:09:37;;;;;;;11.57;7.13;;;3.40;99.90;;;;;;5067143;28;20083;-85
2023/12/14 12:12:06;;;;;;;10.45;6.40;;;3.40;99.90;;;;;;5053247;28;20485;-85
2023/12/14 12:14:31;;;;;;;7.97;5.68;;;3.30;99.90;;;;;;5051889;28;20083;-85
2023/12/14 12:16:57;;;;;;;9.20;5.70;;;3.30;99.90;;;;;;5044412;28;20028;-85
2023/12/14 12:19:23;;;;;;;9.88;5.80;;;3.30;99.90;;;;;;5043837;28;20044;-85
2023/12/14 12:21:49;;;;;;;8.50;5.55;;;3.20;99.90;;;;;;5060342;28;20025;-85
2023/12/14 12:24:14;;;;;;;7.05;4.40;;;3.20;99.90;;;;;;5079336;28;20453;-85
2023/12/14 12:26:40;;;;;;;7.68;4.72;;;3.20;99.90;;;;;;5061852;28;20039;-85
2023/12/14 12:29:06;;;;;;;7.47;4.15;;;3.20;99.90;;;;;;5044099;28;20389;-85
2023/12/14 12:31:33;;;;;;;7.63;4.30;;;3.20;99.90;;;;;;5059780;28;20395;-85
2023/12/14 12:33:58;;;;;;;7.45;5.13;;;3.20;99.90;;;;;;5043591;28;20040;-85
2023/12/14 12:36:24;;;;;;;6.85;4.75;;;3.20;99.90;;;;;;5059042;28;20025;-85
2023/12/14 12:38:51;;;;;;;9.98;5.80;;;3.20;99.90;;;;;;5059290;28;20396;-85
2023/12/14 12:41:17;;;;;;;8.43;5.22;;;3.20;99.90;;;;;;5039261;28;20492;-85
2023/12/14 12:43:43;;;;;;;9.35;5.88;;;3.30;99.90;;;;;;5039107;28;20059;-85
2023/12/14 12:46:09;;;;;;;10.15;6.10;;;3.20;99.90;;;;;;5039090;28;20029;-85
2023/12/14 12:48:36;;;;;;;8.63;5.93;;;3.20;99.90;;;;;;5075170;28;20479;-85